FMEE/RUN METAR and TAF weather

Enter ICAO airport designator
Station Type Date Time Source
FMEE METAR 2018/06/25 17:00 UTC NOAA

FMEE 251700Z AUTO 13019KT CAVOK 22/16 Q1021 NOSIG


Station Type Date Time Source
FMEE Decoded METAR 2018/06/25 17:00 UTC NOAA

Saint-Denis / Gillot, Reunion (FMEE) 20-53S 055-31E 25M
Jun 25, 2018 - 01:00 PM EDT / 2018.06.25 1700 UTC
Wind: from the SE (130 degrees) at 22 MPH (19 KT):0
Visibility: greater than 7 mile(s):0
Temperature: 71 F (22 C)
Dew Point: 60 F (16 C)
Relative Humidity: 68%
Pressure (altimeter): 30.15 in. Hg (1021 hPa)
ob: FMEE 251700Z AUTO 13019KT CAVOK 22/16 Q1021 NOSIG
cycle: 17

Station Type Date Time Source
FMEE TAF 2018/06/25 12:24 UTC NOAA

TAF FMEE 251100Z 2512/2618 14015KT 9999 FEW035
BECMG 2600/2602 14005KT
BECMG 2606/2608 12018G28KT


Example: see airport list